Time;durP1;ratioP1;P1;durP2;ratioP2;P2;SDS_P1;SDS_P2;PMS_P1;PMS_P2;Temp;Humidity;BMP_temperature;BMP_pressure;BME280_temperature;BME280_humidity;BME280_pressure;Samples;Min_cycle;Max_cycle;Signal;HPM_P1;HPM_P2
2022/08/20 00:00:18;;;;;;;;;;;;;;;20.03;78.08;98276.98;434006;1266;96965;-40
2022/08/20 00:10:43;;;;;;;;;;;;;;;19.90;77.99;98273.56;433747;1265;112060;-38
2022/08/20 00:20:53;;;;;;;;;;;;;;;19.64;78.46;98289.16;434035;1266;108763;-39
2022/08/20 00:30:59;;;;;;;;;;;;;;;19.62;79.09;98294.14;434236;1268;97468;-39
2022/08/20 00:41:05;;;;;;;;;;;;;;;19.70;79.40;98293.91;433992;1268;108817;-39
2022/08/20 00:51:13;;;;;;;;;;;;;;;19.68;79.38;98282.14;433847;1266;97535;-40
2022/08/20 01:01:21;;;;;;;;;;;;;;;19.69;79.78;98268.64;434144;1267;111144;-39
2022/08/20 01:21:42;;;;;;;;;;;;;;;19.77;79.72;98291.72;434020;1267;97530;-41
2022/08/20 01:42:00;;;;;;;;;;;;;;;19.67;80.32;98271.38;434076;1267;97962;-41
2022/08/20 01:52:05;;;;;;;;;;;;;;;19.67;80.36;98261.39;433975;1267;111057;-40
2022/08/20 02:02:11;;;;;;;;;;;;;;;19.63;80.63;98240.37;433872;1267;109644;-42
2022/08/20 02:12:17;;;;;;;;;;;;;;;19.56;80.72;98229.14;433320;1269;97497;-41
2022/08/20 02:22:26;;;;;;;;;;;;;;;19.45;80.90;98214.86;433893;1267;109645;-40
2022/08/20 02:32:31;;;;;;;;;;;;;;;19.43;81.24;98214.90;433593;1268;97500;-40
2022/08/20 02:42:41;;;;;;;;;;;;;;;19.44;81.37;98209.68;434137;1267;110158;-40
2022/08/20 02:52:49;;;;;;;;;;;;;;;19.50;81.41;98207.73;433759;1270;109208;-40
2022/08/20 03:02:56;;;;;;;;;;;;;;;19.45;81.61;98195.71;433552;1268;96664;-40
2022/08/20 03:23:07;;;;;;;;;;;;;;;19.49;81.80;98185.92;433729;1267;97511;-39
2022/08/20 03:33:13;;;;;;;;;;;;;;;19.42;81.92;98171.23;433258;1267;110071;-39
2022/08/20 03:43:19;;;;;;;;;;;;;;;19.47;82.01;98178.73;433552;1269;108920;-40
2022/08/20 04:03:28;;;;;;;;;;;;;;;19.60;82.15;98168.60;434276;1265;108920;-40
2022/08/20 04:13:34;;;;;;;;;;;;;;;19.63;82.32;98176.59;433471;1270;97884;-40
2022/08/20 04:23:45;;;;;;;;;;;;;;;19.84;82.55;98185.84;434079;1267;111051;-40
2022/08/20 04:33:51;;;;;;;;;;;;;;;19.99;82.29;98195.27;434026;1268;108941;-40
2022/08/20 04:43:58;;;;;;;;;;;;;;;20.12;82.64;98193.05;433960;1270;96606;-40
2022/08/20 04:54:04;;;;;;;;;;;;;;;20.35;82.50;98187.39;434050;1267;108218;-40
2022/08/20 05:04:09;;;;;;;;;;;;;;;20.79;82.63;98175.83;432721;1269;1331239;-40
2022/08/20 05:14:15;;;;;;;;;;;;;;;21.31;82.38;98169.27;433491;1269;111278;-41
2022/08/20 05:24:20;;;;;;;;;;;;;;;21.76;82.17;98161.91;433682;1269;109013;-40
2022/08/20 05:34:26;;;;;;;;;;;;;;;22.31;81.88;98167.03;433322;1269;97873;-41
2022/08/20 05:44:32;;;;;;;;;;;;;;;22.77;81.43;98151.58;433795;1267;108003;-40
2022/08/20 05:54:38;;;;;;;;;;;;;;;22.98;81.15;98166.57;433698;1267;97907;-40
2022/08/20 06:04:44;;;;;;;;;;;;;;;23.23;80.75;98170.14;433776;1267;110867;-41
2022/08/20 06:45:05;;;;;;;;;;;;;;;23.62;80.02;98199.61;433450;1269;97955;-40
2022/08/20 06:55:11;;;;;;;;;;;;;;;23.64;80.08;98209.57;433906;1267;111103;-40
2022/08/20 07:05:16;;;;;;;;;;;;;;;24.00;80.09;98207.80;433653;1268;107794;-40
2022/08/20 07:15:20;;;;;;;;;;;;;;;24.05;79.33;98219.80;433610;1269;97498;-39
2022/08/20 07:25:26;;;;;;;;;;;;;;;23.97;78.97;98220.42;434081;1267;108794;-39
2022/08/20 07:35:32;;;;;;;;;;;;;;;23.90;78.91;98230.27;433705;1267;97486;-40
2022/08/20 07:55:43;;;;;;;;;;;;;;;23.72;79.62;98233.27;433396;1269;108220;-41
2022/08/20 08:06:03;;;;;;;;;;;;;;;24.21;79.90;98237.02;433680;1268;96583;-45
2022/08/20 08:16:10;;;;;;;;;;;;;;;25.08;79.96;98228.54;433596;1269;107805;-40
2022/08/20 08:26:17;;;;;;;;;;;;;;;25.64;79.04;98236.85;433918;1268;98600;-40
2022/08/20 08:56:43;;;;;;;;;;;;;;;27.86;75.73;98235.90;433157;1269;97775;-42
2022/08/20 09:06:55;;;;;;;;;;;;;;;28.15;75.61;98237.02;433242;1266;108758;-40
2022/08/20 09:17:00;;;;;;;;;;;;;;;28.17;73.90;98236.66;433143;1269;97514;-40
2022/08/20 09:27:06;;;;;;;;;;;;;;;27.74;73.11;98239.78;433344;1269;109938;-39
2022/08/20 09:37:12;;;;;;;;;;;;;;;27.67;73.45;98236.69;433783;1268;108014;-40
2022/08/20 09:47:18;;;;;;;;;;;;;;;27.60;72.33;98240.30;433623;1268;97881;-40
2022/08/20 09:57:25;;;;;;;;;;;;;;;27.27;72.52;98252.63;433621;1268;109076;-41
2022/08/20 10:07:29;;;;;;;;;;;;;;;26.92;72.35;98243.30;433400;1268;96605;-41
2022/08/20 10:17:36;;;;;;;;;;;;;;;27.04;71.89;98240.16;433015;1269;111814;-41
2022/08/20 10:27:42;;;;;;;;;;;;;;;27.00;71.59;98228.25;433534;1268;107949;-41
2022/08/20 10:37:47;;;;;;;;;;;;;;;26.85;71.59;98227.01;433587;1268;98181;-40
2022/08/20 10:47:53;;;;;;;;;;;;;;;26.95;71.53;98228.92;433725;1268;108775;-41
2022/08/20 10:57:58;;;;;;;;;;;;;;;27.12;71.37;98227.52;433751;1268;97532;-41
2022/08/20 11:08:03;;;;;;;;;;;;;;;27.07;71.33;98230.88;433727;1268;111181;-41
2022/08/20 11:18:10;;;;;;;;;;;;;;;26.97;71.46;98218.11;433503;1268;108880;-40
2022/08/20 11:28:16;;;;;;;;;;;;;;;27.09;71.41;98211.62;433979;1268;96973;-40
2022/08/20 11:38:36;;;;;;;;;;;;;;;27.42;70.89;98222.23;433667;1268;108849;-40
2022/08/20 11:48:42;;;;;;;;;;;;;;;27.39;70.22;98220.20;433670;1268;96693;-40
2022/08/20 11:58:47;;;;;;;;;;;;;;;27.36;69.78;98210.76;433733;1268;111149;-41
2022/08/20 12:08:53;;;;;;;;;;;;;;;27.22;69.74;98205.37;433653;1268;108753;-41
2022/08/20 12:18:58;;;;;;;;;;;;;;;27.14;69.46;98194.77;433519;1268;98179;-42
2022/08/20 12:29:04;;;;;;;;;;;;;;;26.94;70.02;98194.70;432831;1269;108832;-42
2022/08/20 12:39:09;;;;;;;;;;;;;;;26.70;70.41;98180.71;433162;1269;97880;-39
2022/08/20 12:49:15;;;;;;;;;;;;;;;26.38;72.15;98173.48;433650;1268;110217;-40
2022/08/20 12:59:22;;;;;;;;;;;;;;;26.26;72.14;98168.45;433562;1268;108857;-40
2022/08/20 13:09:31;;;;;;;;;;;;;;;26.14;72.58;98165.79;433509;1268;96595;-42
2022/08/20 13:19:38;;;;;;;;;;;;;;;26.14;72.49;98167.82;433378;1268;108728;-40
2022/08/20 13:29:46;;;;;;;;;;;;;;;26.19;72.84;98171.75;433878;1268;97504;-40
2022/08/20 13:39:52;;;;;;;;;;;;;;;26.19;72.75;98181.95;433390;1268;112994;-42
2022/08/20 13:49:58;;;;;;;;;;;;;;;26.15;72.71;98195.47;433548;1268;108595;-39
2022/08/20 14:10:12;;;;;;;;;;;;;;;26.36;72.52;98192.70;433583;1268;108974;-40
2022/08/20 14:20:19;;;;;;;;;;;;;;;26.42;72.53;98195.67;433504;1268;97893;-41
2022/08/20 14:30:27;;;;;;;;;;;;;;;26.32;72.24;98195.00;433641;1268;111269;-40
2022/08/20 14:40:33;;;;;;;;;;;;;;;26.11;72.28;98199.46;433770;1268;108515;-40
2022/08/20 14:50:39;;;;;;;;;;;;;;;25.96;72.22;98201.10;433569;1268;97466;-40
2022/08/20 15:00:45;;;;;;;;;;;;;;;26.06;72.48;98200.70;433655;1268;109122;-40
2022/08/20 15:10:51;;;;;;;;;;;;;;;25.91;72.63;98212.63;433814;1270;97768;-41
2022/08/20 15:20:57;;;;;;;;;;;;;;;25.68;72.64;98207.45;433911;1268;111231;-40
2022/08/20 15:31:08;;;;;;;;;;;;;;;25.45;72.26;98193.52;433516;1268;108854;-41
2022/08/20 15:41:13;;;;;;;;;;;;;;;25.24;72.07;98197.69;433930;1268;97923;-40
2022/08/20 15:51:26;;;;;;;;;;;;;;;24.93;72.01;98181.49;434101;1268;108627;-40
2022/08/20 16:01:31;;;;;;;;;;;;;;;24.74;71.72;98176.59;433829;1268;97511;-40
2022/08/20 16:11:37;;;;;;;;;;;;;;;24.46;72.29;98177.36;433556;1268;110903;-40
2022/08/20 16:21:44;;;;;;;;;;;;;;;24.20;72.55;98191.60;433698;1268;108749;-40
2022/08/20 16:31:54;;;;;;;;;;;;;;;24.02;72.99;98179.88;433701;1268;98187;-40
2022/08/20 16:42:00;;;;;;;;;;;;;;;23.78;73.19;98159.07;433748;1268;109407;-40
2022/08/20 16:52:10;;;;;;;;;;;;;;;23.53;73.78;98155.39;433980;1268;98130;-40
2022/08/20 17:02:19;;;;;;;;;;;;;;;23.34;74.43;98188.91;432623;1268;1517766;-40
2022/08/20 17:12:27;;;;;;;;;;;;;;;23.13;75.05;98203.71;433607;1268;108778;-40
2022/08/20 17:22:39;;;;;;;;;;;;;;;23.07;75.59;98214.92;432947;1271;98185;-41
2022/08/20 17:32:50;;;;;;;;;;;;;;;22.92;75.89;98224.25;432447;1268;108572;-41
2022/08/20 17:43:04;;;;;;;;;;;;;;;22.77;76.45;98219.41;433778;1268;97471;-40
2022/08/20 18:00:47;;;;;;;43.70;30.70;;;;;;;22.56;77.00;98206.00;420357;1309;636721;-40
2022/08/20 18:10:55;;;;;;;43.70;34.90;;;;;;;22.24;77.43;98213.50;429793;1277;1428266;-41
2022/08/20 18:21:20;;;;;;;35.20;29.60;;;;;;;21.98;78.08;98222.67;430797;1277;108198;-40
2022/08/20 18:31:26;;;;;;;38.90;31.60;;;;;;;21.86;78.70;98256.96;431019;1277;108952;-40
2022/08/20 18:41:34;;;;;;;43.00;31.10;;;;;;;21.79;79.22;98273.91;430696;1277;95537;-40
2022/08/20 18:51:47;;;;;;;41.20;31.50;;;;;;;21.63;79.47;98281.22;430528;1277;95821;-40
2022/08/20 19:01:55;;;;;;;35.60;31.50;;;;;;;21.51;79.89;98273.75;431606;1274;107714;-41
2022/08/20 19:12:14;;;;;;;38.50;32.00;;;;;;;21.50;80.30;98259.41;430911;1276;108798;-41
2022/08/20 19:22:22;;;;;;;37.60;29.00;;;;;;;21.43;80.55;98262.68;431524;1274;108797;-41
2022/08/20 19:32:32;;;;;;;35.40;30.80;;;;;;;21.30;81.09;98241.70;433228;1270;94852;-41
2022/08/20 19:42:44;;;;;;;34.90;28.00;;;;;;;21.22;81.28;98234.14;433157;1271;109929;-41
2022/08/20 19:52:50;;;;;;;38.40;28.40;;;;;;;21.15;81.66;98221.64;433136;1270;108905;-41
2022/08/20 20:03:07;;;;;;;30.80;26.60;;;;;;;21.09;81.84;98209.09;433327;1270;96154;-40
2022/08/20 20:13:17;;;;;;;26.80;22.40;;;;;;;20.97;82.09;98185.58;433065;1270;109000;-40
2022/08/20 20:23:28;;;;;;;30.80;22.80;;;;;;;20.95;82.24;98185.47;433356;1271;96076;-40
2022/08/20 20:33:51;;;;;;;28.00;22.00;;;;;;;20.87;82.30;98187.55;433472;1271;109781;-40
2022/08/20 20:44:00;;;;;;;24.40;21.20;;;;;;;20.81;82.53;98192.91;432872;1271;108900;-40
2022/08/20 20:54:22;;;;;;;24.20;21.60;;;;;;;20.79;82.63;98186.19;433163;1270;96114;-40
2022/08/20 21:04:30;;;;;;;26.90;24.00;;;;;;;20.86;82.88;98186.42;433527;1271;108997;-40
2022/08/20 21:14:38;;;;;;;30.50;24.80;;;;;;;20.84;83.10;98183.13;433473;1270;97031;-39
2022/08/20 21:24:47;;;;;;;31.00;22.00;;;;;;;20.81;83.24;98196.89;433007;1271;109764;-39
2022/08/20 21:34:54;;;;;;;27.70;20.90;;;;;;;20.71;83.37;98206.44;433188;1270;108784;-40
2022/08/20 21:45:02;;;;;;;25.50;21.90;;;;;;;20.67;83.56;98200.32;433198;1270;95923;-40
2022/08/20 21:55:09;;;;;;;26.30;21.10;;;;;;;20.63;83.79;98189.20;433248;1271;107369;-40
2022/08/20 22:05:17;;;;;;;32.90;24.50;;;;;;;20.54;84.05;98189.59;432589;1271;96774;-40
2022/08/20 22:15:24;;;;;;;24.60;21.20;;;;;;;20.58;84.45;98183.66;432648;1271;108613;-40
2022/08/20 22:25:31;;;;;;;28.80;22.70;;;;;;;20.65;84.72;98186.95;432750;1271;108959;-40
2022/08/20 22:35:40;;;;;;;30.40;21.00;;;;;;;20.68;84.89;98191.46;432607;1270;96677;-40
2022/08/20 22:45:49;;;;;;;29.00;20.50;;;;;;;20.74;85.09;98193.37;433712;1268;108871;-39
2022/08/20 22:55:57;;;;;;;28.10;20.20;;;;;;;20.71;85.18;98186.41;434465;1267;97184;-39
2022/08/20 23:06:04;;;;;;;28.20;19.60;;;;;;;20.69;85.23;98168.39;434219;1268;109749;-40
2022/08/20 23:16:12;;;;;;;26.60;18.10;;;;;;;20.53;85.46;98149.49;433803;1268;109339;-40
2022/08/20 23:26:21;;;;;;;22.70;18.00;;;;;;;20.41;85.91;98148.60;434286;1267;96137;-40
2022/08/20 23:36:29;;;;;;;25.40;18.50;;;;;;;20.33;86.14;98142.66;434413;1267;108795;-40
2022/08/20 23:46:38;;;;;;;20.90;17.20;;;;;;;20.35;86.63;98133.96;433969;1268;108833;-41
2022/08/20 23:56:46;;;;;;;25.00;17.80;;;;;;;20.38;86.67;98128.75;434391;1266;96407;-40
